Time;durP1;ratioP1;P1;durP2;ratioP2;P2;SDS_P1;SDS_P2;PMS_P1;PMS_P2;Temp;Humidity;BMP_temperature;BMP_pressure;BME280_temperature;BME280_humidity;BME280_pressure;Samples;Min_cycle;Max_cycle;Signal;HPM_P1;HPM_P2
2022/06/20 02:43:32;;;;;;;7.05;3.50;;;;;;;21.08;58.01;98452.55;1800129;79;22564;-60
2022/06/20 02:45:59;;;;;;;10.58;4.12;;;;;;;20.99;56.75;98453.58;1761704;80;21034;-59
2022/06/20 02:48:28;;;;;;;11.45;3.67;;;;;;;20.96;57.09;98458.78;1761843;81;21003;-63
2022/06/20 02:50:59;;;;;;;13.03;4.70;;;;;;;20.92;57.26;98460.14;1761798;81;21491;-51
2022/06/20 02:53:33;;;;;;;10.32;3.80;;;;;;;20.76;59.37;98462.85;1742503;81;20991;-55
2022/06/20 02:55:59;;;;;;;7.75;4.30;;;;;;;20.77;57.91;98476.02;1760484;80;21511;-57
2022/06/20 02:58:30;;;;;;;9.67;4.63;;;;;;;20.71;58.34;98482.88;1761931;80;21034;-59
2022/06/20 03:01:06;;;;;;;9.18;4.28;;;;;;;20.66;58.88;98485.22;1761805;80;20999;-58
2022/06/20 03:03:37;;;;;;;13.45;4.05;;;;;;;20.60;59.62;98493.88;1761740;81;20967;-56
2022/06/20 03:06:06;;;;;;;18.02;3.90;;;;;;;20.32;63.91;98492.90;1761750;81;21448;-61
2022/06/20 03:08:33;;;;;;;6.55;3.52;;;;;;;20.32;61.57;98494.23;1761746;81;20956;-54
2022/06/20 03:11:04;;;;;;;13.48;3.17;;;;;;;20.26;62.77;98494.88;1761988;81;21437;-58
2022/06/20 03:13:28;;;;;;;7.08;3.20;;;;;;;20.12;63.65;98489.72;1761505;81;20951;-58
2022/06/20 03:15:55;;;;;;;9.18;3.65;;;;;;;20.14;62.80;98490.38;1761772;80;20994;-57
2022/06/20 03:18:24;;;;;;;17.03;3.73;;;;;;;20.08;64.13;98504.88;1762011;81;21030;-61
2022/06/20 03:20:50;;;;;;;9.83;3.80;;;;;;;20.02;63.65;98498.87;1761821;80;20987;-63
2022/06/20 03:23:32;;;;;;;12.18;4.35;;;;;;;19.96;64.31;98490.21;1761930;80;20994;-57
2022/06/20 03:26:01;;;;;;;7.70;2.90;;;;;;;19.96;64.41;98500.88;1761798;81;21508;-60
2022/06/20 03:28:30;;;;;;;8.65;3.40;;;;;;;19.96;65.49;98492.87;1761772;81;21468;-52
2022/06/20 03:31:00;;;;;;;12.03;3.33;;;;;;;19.96;64.31;98493.70;1761744;80;20985;-56
2022/06/20 03:33:26;;;;;;;11.00;3.40;;;;;;;19.92;65.79;98495.04;1761702;81;20994;-53
2022/06/20 03:36:06;;;;;;;7.00;2.92;;;;;;;19.90;65.21;98497.87;1761658;80;20983;-60
2022/06/20 03:38:35;;;;;;;13.95;3.17;;;;;;;19.87;65.47;98503.52;1753741;81;20979;-54
2022/06/20 03:41:05;;;;;;;12.78;2.98;;;;;;;19.84;67.38;98509.69;1761659;81;21547;-57
2022/06/20 03:43:32;;;;;;;9.45;3.55;;;;;;;19.90;65.79;98507.69;1749082;81;21027;-56
2022/06/20 03:46:12;;;;;;;8.85;3.08;;;;;;;19.83;66.02;98510.67;1738426;82;20965;-63
2022/06/20 03:48:43;;;;;;;9.70;3.30;;;;;;;19.85;66.05;98507.36;1748526;81;21027;-58
2022/06/20 03:51:21;;;;;;;11.93;2.98;;;;;;;19.86;66.22;98515.17;1747789;81;21532;-54
2022/06/20 03:53:55;;;;;;;10.88;3.00;;;;;;;19.87;67.88;98518.70;1748369;81;21457;-52
2022/06/20 03:56:27;;;;;;;11.85;3.47;;;;;;;19.89;66.47;98530.87;1747551;81;21485;-55
2022/06/20 03:59:04;;;;;;;9.65;2.62;;;;;;;19.81;68.03;98536.67;1748149;81;21004;-56
2022/06/20 04:01:41;;;;;;;9.75;3.40;;;;;;;19.88;66.67;98537.22;1748071;81;20988;-54
2022/06/20 04:04:15;;;;;;;10.72;3.37;;;;;;;19.91;66.81;98552.88;1747729;81;21035;-61
2022/06/20 04:06:49;;;;;;;13.98;2.83;;;;;;;20.03;66.04;98561.44;1747512;81;21595;-55
2022/06/20 04:12:27;;;;;;;8.28;3.00;;;;;;;20.09;67.07;98549.27;1745529;82;20976;-55
2022/06/20 04:15:10;;;;;;;22.32;3.75;;;;;;;20.11;67.17;98565.44;1747938;81;20968;-56
2022/06/20 04:20:36;;;;;;;13.85;3.17;;;;;;;20.00;67.01;98565.75;1748162;81;20968;-53
2022/06/20 04:23:11;;;;;;;10.63;3.25;;;;;;;19.92;67.00;98551.90;1748008;81;21035;-62
2022/06/20 04:25:42;;;;;;;9.48;2.80;;;;;;;19.98;66.79;98541.07;1748070;81;21047;-59
2022/06/20 04:28:34;;;;;;;15.83;2.90;;;;;;;19.86;69.06;98541.03;1748014;81;21000;-56
2022/06/20 04:31:20;;;;;;;8.63;3.27;;;;;;;19.80;68.42;98549.19;1725019;81;21003;-55
2022/06/20 04:33:57;;;;;;;10.98;2.65;;;;;;;19.80;68.49;98578.53;1748059;81;21023;-53
2022/06/20 04:36:32;;;;;;;;;;;;;;;19.81;68.71;98591.37;1750667;81;21022;-49
2022/06/20 04:39:15;;;;;;;12.18;3.12;;;;;;;19.70;68.62;98576.45;1748085;82;20396;-56
2022/06/20 04:41:52;;;;;;;11.78;3.02;;;;;;;19.57;69.84;98579.56;1747954;81;21014;-59
2022/06/20 04:44:29;;;;;;;11.50;3.02;;;;;;;19.48;70.52;98580.53;1748050;81;21004;-60
2022/06/20 04:47:28;;;;;;;9.23;2.92;;;;;;;19.48;69.99;98576.05;1748267;81;21468;-54
2022/06/20 04:49:54;;;;;;;10.58;3.02;;;;;;;19.43;70.82;98571.69;1747936;81;20996;-55
2022/06/20 04:52:25;;;;;;;10.75;3.72;;;;;;;19.44;70.41;98567.18;1748093;81;20996;-57
2022/06/20 04:54:51;;;;;;;10.53;3.35;;;;;;;19.42;71.15;98562.51;1748084;81;21054;-56
2022/06/20 04:57:16;;;;;;;13.80;3.33;;;;;;;19.36;71.86;98560.81;1748080;81;21012;-57
2022/06/20 04:59:43;;;;;;;16.60;3.83;;;;;;;19.35;72.70;98553.80;1748107;81;21548;-60
2022/06/20 05:02:16;;;;;;;13.45;3.60;;;;;;;19.30;72.37;98544.61;1748194;81;21437;-57
2022/06/20 05:04:45;;;;;;;14.28;3.42;;;;;;;19.31;72.12;98530.30;1746893;81;20960;-57
2022/06/20 05:07:18;;;;;;;13.85;3.20;;;;;;;19.32;72.53;98527.98;1748036;81;21004;-54
2022/06/20 05:09:59;;;;;;;15.63;3.70;;;;;;;19.28;73.78;98515.95;1737577;81;21482;-53
2022/06/20 05:12:42;;;;;;;16.37;3.62;;;;;;;19.37;72.57;98512.31;1748121;81;21523;-55
2022/06/20 05:15:13;;;;;;;12.63;3.47;;;;;;;19.41;74.11;98502.17;1748049;81;20996;-60
2022/06/20 05:17:41;;;;;;;10.58;3.30;;;;;;;19.33;74.67;98508.31;1748012;81;21035;-55
2022/06/20 05:20:16;;;;;;;9.18;3.30;;;;;;;19.43;72.63;98511.70;1747833;81;21047;-63
2022/06/20 05:22:50;;;;;;;10.23;3.30;;;;;;;19.49;73.11;98513.70;1743786;81;21074;-59
2022/06/20 05:25:21;;;;;;;12.60;3.40;;;;;;;19.35;74.32;98503.65;1748074;81;21531;-51
2022/06/20 05:28:01;;;;;;;14.30;3.27;;;;;;;19.32;74.79;98488.83;1748145;81;21047;-58
2022/06/20 05:30:34;;;;;;;8.93;3.45;;;;;;;19.40;72.80;98474.68;1748058;81;21034;-53
2022/06/20 05:33:05;;;;;;;14.55;3.80;;;;;;;19.52;72.86;98473.39;1748091;81;20989;-55
2022/06/20 05:35:45;;;;;;;12.43;3.50;;;;;;;19.65;72.43;98477.44;1746820;81;20991;-56
2022/06/20 05:38:28;;;;;;;9.20;3.08;;;;;;;19.73;72.68;98472.14;1747243;81;21004;-58
2022/06/20 05:40:57;;;;;;;7.60;3.20;;;;;;;19.86;72.24;98468.48;1733392;81;21441;-54
2022/06/20 05:43:24;;;;;;;8.40;2.85;;;;;;;20.03;71.78;98459.17;1747781;82;21012;-54
2022/06/20 05:45:58;;;;;;;11.77;3.40;;;;;;;20.16;71.53;98462.70;1748292;81;21591;-57
2022/06/20 05:48:30;;;;;;;16.42;3.83;;;;;;;20.28;71.24;98475.55;1747988;81;20968;-59
2022/06/20 05:51:02;;;;;;;13.40;3.27;;;;;;;20.41;71.21;98488.88;1747994;82;21035;-50
2022/06/20 05:53:42;;;;;;;10.23;3.40;;;;;;;20.49;70.68;98487.05;1747896;82;20987;-55
2022/06/20 05:56:30;;;;;;;18.95;3.90;;;;;;;20.58;70.23;98482.54;1748000;82;20992;-56
2022/06/20 05:58:59;;;;;;;14.80;3.02;;;;;;;20.74;70.31;98491.55;1748035;81;20992;-58
2022/06/20 06:01:35;;;;;;;12.23;3.42;;;;;;;20.87;69.72;98487.36;1747973;81;21407;-53
2022/06/20 06:04:18;;;;;;;15.78;3.65;;;;;;;20.98;69.42;98472.80;1748241;81;20988;-53
2022/06/20 06:06:52;;;;;;;14.70;5.10;;;;;;;21.17;69.26;98466.72;1747795;81;20980;-57
2022/06/20 06:09:26;;;;;;;22.98;4.45;;;;;;;21.36;68.74;98466.32;1747510;81;20960;-54
2022/06/20 06:12:05;;;;;;;12.55;3.40;;;;;;;21.55;68.68;98476.29;1747995;81;21051;-55
2022/06/20 06:14:42;;;;;;;14.43;5.28;;;;;;;21.67;67.95;98476.23;1748000;81;20950;-52
2022/06/20 06:17:29;;;;;;;;;;;;;;;21.76;67.52;98479.19;1750354;81;20976;-57
2022/06/20 06:20:03;;;;;;;12.68;3.45;;;;;;;21.83;67.35;98481.48;1744953;81;20133;-56
2022/06/20 06:22:36;;;;;;;13.62;3.52;;;;;;;21.93;67.08;98482.58;1747920;82;21576;-54
2022/06/20 06:25:23;;;;;;;16.20;3.50;;;;;;;22.02;66.51;98488.72;1748081;81;20985;-55
2022/06/20 06:27:51;;;;;;;14.25;3.90;;;;;;;22.06;66.22;98480.66;1748151;81;21015;-56
2022/06/20 06:30:22;;;;;;;16.05;3.47;;;;;;;22.12;66.10;98484.45;1747970;81;20988;-55
2022/06/20 06:32:56;;;;;;;11.93;3.45;;;;;;;22.22;65.85;98522.03;1747983;81;21011;-55
2022/06/20 06:35:34;;;;;;;14.10;4.20;;;;;;;22.31;65.18;98539.43;1748009;81;20979;-58
2022/06/20 06:38:33;;;;;;;12.03;4.45;;;;;;;22.24;65.85;98535.25;1748032;81;21611;-54
2022/06/20 06:41:03;;;;;;;15.72;4.37;;;;;;;22.24;65.64;98466.45;1748018;81;21457;-54
2022/06/20 06:43:41;;;;;;;15.45;3.92;;;;;;;22.22;65.99;98562.72;1756024;81;21556;-57
2022/06/20 06:46:13;;;;;;;27.93;5.47;;;;;;;22.07;66.01;98497.57;1760541;81;20979;-58
2022/06/20 06:49:02;;;;;;;16.80;4.15;;;;;;;21.92;66.26;98484.09;1761287;81;21472;-52
2022/06/20 06:51:36;;;;;;;19.73;4.05;;;;;;;21.85;66.74;98530.31;1760757;81;20952;-57
2022/06/20 06:54:19;;;;;;;13.93;4.03;;;;;;;21.62;66.92;98504.02;1761329;81;21058;-58
2022/06/20 06:56:56;;;;;;;15.45;4.28;;;;;;;21.22;68.15;98471.05;1761371;81;21460;-59
2022/06/20 06:59:30;;;;;;;10.93;4.10;;;;;;;21.17;68.77;98508.16;1761294;81;21515;-54
2022/06/20 07:02:02;;;;;;;20.77;4.20;;;;;;;21.18;68.82;98504.50;1744258;81;20960;-53
2022/06/20 07:04:46;;;;;;;13.90;3.72;;;;;;;21.16;68.53;98498.49;1744511;81;20964;-56
2022/06/20 07:07:23;;;;;;;22.50;3.98;;;;;;;21.11;69.16;98491.48;1761365;81;21000;-55
2022/06/20 07:09:52;;;;;;;15.83;3.60;;;;;;;21.14;68.55;98466.58;1761300;81;21518;-59
2022/06/20 07:12:37;;;;;;;21.48;4.37;;;;;;;21.23;68.32;98459.37;1761305;81;20983;-55
2022/06/20 07:15:09;;;;;;;21.73;4.80;;;;;;;21.29;68.19;98464.83;1760444;81;21131;-59
2022/06/20 07:17:49;;;;;;;19.92;4.55;;;;;;;21.34;68.38;98454.97;1760804;81;21444;-56
2022/06/20 07:20:18;;;;;;;10.38;3.85;;;;;;;21.42;68.11;98432.17;1760992;81;20980;-59
2022/06/20 07:22:44;;;;;;;23.40;4.30;;;;;;;21.57;68.20;98415.41;1761248;81;21468;-57
2022/06/20 07:25:16;;;;;;;20.20;3.45;;;;;;;21.71;68.19;98410.64;1761379;81;20991;-57
2022/06/20 07:27:53;;;;;;;17.98;4.35;;;;;;;21.90;67.94;98416.02;1761253;81;21104;-59
2022/06/20 07:30:23;;;;;;;25.80;4.30;;;;;;;22.03;67.60;98416.78;1761426;81;20983;-59
2022/06/20 07:33:00;;;;;;;15.93;4.30;;;;;;;22.15;67.02;98395.23;1761403;81;20960;-58
2022/06/20 07:35:34;;;;;;;11.05;3.85;;;;;;;22.29;66.55;98391.48;1759897;81;21058;-57
2022/06/20 07:38:24;;;;;;;16.25;4.42;;;;;;;22.38;66.11;98392.55;1760463;81;21043;-54
2022/06/20 07:40:55;;;;;;;20.95;6.55;;;;;;;22.50;65.75;98399.61;1760334;81;21035;-50
2022/06/20 07:43:38;;;;;;;14.15;4.28;;;;;;;22.62;65.55;98403.52;1753345;80;21580;-51
2022/06/20 07:46:12;;;;;;;17.90;4.60;;;;;;;22.77;65.43;98393.30;1746944;81;21090;-55
2022/06/20 07:48:43;;;;;;;14.65;4.05;;;;;;;22.88;64.99;98390.16;1746951;81;21054;-55
2022/06/20 07:51:29;;;;;;;18.87;4.78;;;;;;;23.00;64.85;98376.61;1747115;81;21548;-58
2022/06/20 07:54:13;;;;;;;21.93;3.92;;;;;;;23.10;64.49;98363.45;1747722;81;20964;-54
2022/06/20 07:56:46;;;;;;;22.42;4.10;;;;;;;23.24;64.23;98356.40;1748159;82;20999;-53
2022/06/20 07:59:21;;;;;;;25.00;4.83;;;;;;;23.36;63.89;98349.00;1748224;82;21521;-59
2022/06/20 08:02:16;;;;;;;21.62;4.47;;;;;;;23.51;63.82;98352.15;1747148;81;21024;-53
2022/06/20 08:04:44;;;;;;;11.55;4.58;;;;;;;23.64;63.69;98342.05;1747914;81;21020;-57
2022/06/20 08:07:22;;;;;;;13.48;4.25;;;;;;;23.75;63.89;98345.56;1748041;82;21011;-58
2022/06/20 08:10:06;;;;;;;18.30;4.22;;;;;;;23.89;63.77;98354.08;1742602;82;20984;-57
2022/06/20 08:13:04;;;;;;;17.57;5.30;;;;;;;23.98;63.26;98354.78;1748056;82;21018;-53
2022/06/20 08:15:57;;;;;;;21.60;5.33;;;;;;;24.06;62.67;98355.97;1748141;81;20984;-58
2022/06/20 08:18:24;;;;;;;15.48;4.25;;;;;;;24.23;62.26;98339.56;1748182;81;21020;-58
2022/06/20 08:21:01;;;;;;;12.75;4.03;;;;;;;24.36;62.08;98347.73;1748109;82;20996;-55
2022/06/20 08:23:30;;;;;;;;;;;;;;;24.50;62.14;98349.48;1750571;81;20996;-57
2022/06/20 08:26:01;;;;;;;14.28;4.00;;;;;;;24.59;61.38;98347.47;1747982;81;20136;-57
2022/06/20 08:28:58;;;;;;;13.83;4.08;;;;;;;24.70;60.96;98340.22;1748100;81;20995;-56
2022/06/20 08:31:44;;;;;;;11.65;5.00;;;;;;;24.84;61.19;98338.41;1747772;81;20956;-56
2022/06/20 08:34:18;;;;;;;14.00;4.53;;;;;;;24.98;60.49;98327.72;1747996;81;21026;-53
2022/06/20 08:37:17;;;;;;;13.58;3.90;;;;;;;25.15;60.24;98329.01;1748055;81;21008;-57
2022/06/20 08:40:06;;;;;;;12.65;3.62;;;;;;;25.32;59.96;98320.59;1748087;81;20984;-55
2022/06/20 08:43:27;;;;;;;22.98;4.62;;;;;;;25.55;59.59;98315.67;1748019;81;21035;-51
2022/06/20 08:46:31;;;;;;;8.75;3.83;;;;;;;25.70;58.67;98322.73;1748048;81;20995;-56
2022/06/20 08:49:08;;;;;;;16.77;5.83;;;;;;;25.83;58.21;98315.50;1748162;81;21082;-54
2022/06/20 08:52:08;;;;;;;13.28;5.45;;;;;;;25.98;58.77;98315.31;1747158;81;21476;-54
2022/06/20 08:55:04;;;;;;;16.62;4.05;;;;;;;26.18;58.17;98308.56;1748026;81;21004;-57
2022/06/20 08:58:02;;;;;;;13.58;4.67;;;;;;;26.44;57.02;98309.54;1747915;81;20996;-50
2022/06/20 09:00:45;;;;;;;20.40;4.50;;;;;;;26.59;55.83;98314.68;1747861;81;21035;-58
2022/06/20 09:03:36;;;;;;;14.10;4.08;;;;;;;26.80;54.85;98309.57;1747899;81;21027;-56
2022/06/20 09:06:24;;;;;;;11.60;4.15;;;;;;;26.98;54.39;98308.34;1747669;81;20991;-57
2022/06/20 09:09:22;;;;;;;15.45;3.70;;;;;;;27.19;53.69;98312.58;1748011;81;20976;-51
2022/06/20 09:12:25;;;;;;;17.52;3.67;;;;;;;27.36;53.12;98311.59;1748068;81;20972;-55
2022/06/20 09:15:29;;;;;;;13.65;3.20;;;;;;;27.51;52.46;98299.14;1747815;81;20988;-57
2022/06/20 09:18:22;;;;;;;12.98;4.53;;;;;;;27.74;52.09;98301.26;1747977;81;21489;-54
2022/06/20 09:20:59;;;;;;;10.05;3.40;;;;;;;27.93;51.13;98299.45;1747666;81;20984;-59
2022/06/20 09:23:59;;;;;;;;;;;;;;;28.01;50.21;98297.52;1750751;81;20987;-55
2022/06/20 09:26:36;;;;;;;7.50;3.30;;;;;;;27.97;49.60;98297.67;1747749;81;20113;-53
2022/06/20 09:29:32;;;;;;;13.93;4.05;;;;;;;28.37;50.55;98298.10;1768946;81;21345;-58
2022/06/20 09:32:18;;;;;;;30.35;4.08;;;;;;;28.78;49.98;98302.55;1772460;80;21066;-55
2022/06/20 09:35:19;;;;;;;14.18;3.20;;;;;;;29.25;48.74;98291.47;1772720;80;21007;-51
2022/06/20 09:38:18;;;;;;;7.17;3.02;;;;;;;29.65;48.09;98281.88;1773902;80;21079;-48
2022/06/20 09:41:06;;;;;;;14.07;3.20;;;;;;;30.15;47.05;98270.64;1772339;80;21018;-51
2022/06/20 09:43:56;;;;;;;10.65;3.55;;;;;;;30.74;47.17;98268.38;1773366;80;21082;-52
2022/06/20 09:46:37;;;;;;;14.45;3.92;;;;;;;31.26;45.10;98260.17;1735289;81;21031;-50
2022/06/20 09:49:35;;;;;;;14.75;3.50;;;;;;;31.61;40.72;98248.83;1772644;80;21066;-53
2022/06/20 09:52:21;;;;;;;8.18;2.85;;;;;;;32.10;40.46;98253.14;1772491;81;21637;-48
2022/06/20 09:55:02;;;;;;;10.15;2.87;;;;;;;32.56;39.78;98263.81;1772150;81;21062;-51
2022/06/20 09:57:51;;;;;;;12.55;3.30;;;;;;;33.02;36.75;98272.53;1773064;81;21567;-50
2022/06/20 10:00:25;;;;;;;8.98;2.72;;;;;;;33.64;36.86;98267.17;1773057;81;21014;-56
2022/06/20 10:03:12;;;;;;;9.73;3.12;;;;;;;33.82;34.21;98276.89;1772571;81;21039;-54
2022/06/20 10:05:47;;;;;;;11.63;3.17;;;;;;;33.91;36.94;98261.69;1772593;80;21125;-55
2022/06/20 10:08:38;;;;;;;166.82;18.85;;;;;;;33.60;36.45;98261.94;1771963;80;21210;-48
2022/06/20 10:11:27;;;;;;;10.60;3.33;;;;;;;33.18;36.20;98269.47;1773340;81;21003;-53
2022/06/20 10:14:33;;;;;;;18.42;4.10;;;;;;;32.93;36.43;98291.25;1772621;80;21522;-48
2022/06/20 10:17:28;;;;;;;32.63;5.53;;;;;;;32.42;36.64;98306.36;1773676;81;20995;-43
2022/06/20 10:20:26;;;;;;;9.53;3.00;;;;;;;31.93;36.80;98329.27;1773504;80;21535;-57
2022/06/20 10:23:23;;;;;;;51.30;7.45;;;;;;;31.19;37.27;98361.33;1736420;82;21083;-55
2022/06/20 10:26:19;;;;;;;31.90;7.78;;;;;;;29.42;43.10;98412.14;1721140;82;21533;-58
2022/06/20 10:29:09;;;;;;;13.32;6.33;;;;;;;27.25;48.39;98401.83;1685695;85;21032;-58
2022/06/20 10:31:43;;;;;;;8.50;6.83;;;;;;;26.39;49.67;98407.20;1685235;85;21112;-52
2022/06/20 10:34:34;;;;;;;14.75;7.50;;;;;;;25.04;53.60;98446.60;1685287;84;21064;-55
2022/06/20 10:37:09;;;;;;;20.45;7.08;;;;;;;23.69;58.13;98461.75;1683987;85;21119;-59
2022/06/20 10:39:58;;;;;;;13.35;6.22;;;;;;;23.26;58.42;98467.01;1682990;85;21350;-53
2022/06/20 10:42:32;;;;;;;21.25;7.33;;;;;;;22.72;60.45;98471.60;1684903;84;21076;-58
2022/06/20 10:45:12;;;;;;;15.88;7.45;;;;;;;22.24;61.83;98458.41;1682323;84;21120;-56
2022/06/20 10:48:06;;;;;;;15.30;7.22;;;;;;;22.01;61.50;98493.25;1681523;85;21111;-52
2022/06/20 10:50:56;;;;;;;22.13;7.03;;;;;;;21.68;65.01;98489.92;1682058;85;21025;-59
2022/06/20 10:53:58;;;;;;;10.72;6.47;;;;;;;21.49;67.70;98425.66;1675036;85;21025;-54
2022/06/20 10:57:01;;;;;;;14.50;6.72;;;;;;;21.09;70.75;98414.95;1681384;85;21072;-54
2022/06/20 10:59:48;;;;;;;13.50;7.72;;;;;;;20.99;71.53;98426.38;1726960;82;21407;-57
2022/06/20 11:03:02;;;;;;;15.75;7.17;;;;;;;20.74;74.47;98436.30;1765787;80;21014;-52
2022/06/20 11:05:43;;;;;;;14.87;7.55;;;;;;;20.67;73.28;98436.65;1696831;84;21450;-56
2022/06/20 11:08:32;;;;;;;11.10;6.50;;;;;;;20.48;74.14;98391.06;1696296;84;21022;-58
2022/06/20 11:11:30;;;;;;;8.15;5.65;;;;;;;20.14;80.26;98349.43;1653042;85;21027;-59
2022/06/20 11:14:18;;;;;;;7.25;5.40;;;;;;;19.99;80.68;98331.08;1659748;85;21015;-60
2022/06/20 11:17:08;;;;;;;10.80;5.17;;;;;;;19.54;81.00;98373.24;1679841;85;21015;-55
2022/06/20 11:20:17;;;;;;;5.90;5.25;;;;;;;19.51;80.12;98417.55;1662680;85;21059;-58
2022/06/20 11:22:57;;;;;;;9.03;5.65;;;;;;;19.42;81.22;98463.35;1679956;85;21282;-53
2022/06/20 11:25:56;;;;;;;7.22;5.67;;;;;;;19.42;79.89;98463.35;1676821;85;21035;-58
2022/06/20 11:29:03;;;;;;;6.65;6.05;;;;;;;19.38;79.73;98479.34;1680273;85;21050;-50
2022/06/20 11:32:05;;;;;;;7.10;6.40;;;;;;;19.40;80.35;98457.86;1680392;85;21115;-58
2022/06/20 11:34:48;;;;;;;11.73;8.25;;;;;;;19.55;80.90;98470.41;1680036;85;20999;-53
2022/06/20 11:37:28;;;;;;;16.50;7.40;;;;;;;19.58;80.58;98484.42;1679865;85;20968;-55
2022/06/20 11:40:25;;;;;;;10.05;6.47;;;;;;;19.68;79.28;98478.42;1679615;85;21000;-50
2022/06/20 11:43:15;;;;;;;9.53;6.78;;;;;;;19.79;77.86;98465.31;1679741;85;21755;-59
2022/06/20 11:46:23;;;;;;;8.65;6.78;;;;;;;19.75;78.03;98410.98;1685832;85;21205;-59
2022/06/20 11:49:26;;;;;;;10.55;6.83;;;;;;;19.79;78.69;98366.61;1693904;84;21037;-53
2022/06/20 11:52:19;;;;;;;10.08;7.30;;;;;;;19.87;80.05;98356.78;1693826;83;21081;-57
2022/06/20 11:55:14;;;;;;;9.10;6.83;;;;;;;19.80;78.62;98378.45;1694052;85;21017;-55
2022/06/20 11:57:48;;;;;;;13.10;7.90;;;;;;;19.73;79.36;98421.45;1693943;85;21527;-53
2022/06/20 12:00:40;;;;;;;8.00;7.20;;;;;;;19.51;80.12;98447.71;1694447;83;20990;-61
2022/06/20 12:03:35;;;;;;;10.95;7.65;;;;;;;19.33;82.46;98461.66;1693946;84;21034;-57
2022/06/20 12:06:21;;;;;;;7.62;6.53;;;;;;;19.20;82.43;98435.97;1693725;84;21451;-57
2022/06/20 12:08:55;;;;;;;10.58;7.55;;;;;;;19.08;83.08;98424.74;1694612;84;20962;-55
2022/06/20 12:11:58;;;;;;;9.70;6.78;;;;;;;19.16;81.00;98460.26;1693755;84;21058;-60
2022/06/20 12:14:33;;;;;;;9.08;6.67;;;;;;;19.20;81.49;98499.42;1705552;83;20995;-57
2022/06/20 12:17:27;;;;;;;7.55;6.70;;;;;;;19.27;80.97;98528.95;1716486;83;21011;-60
2022/06/20 12:26:03;;;;;;;9.73;6.78;;;;;;;19.13;83.70;98523.20;1716748;82;20991;-57
2022/06/20 12:28:37;;;;;;;10.40;6.83;;;;;;;19.18;85.12;98529.40;1716727;82;21567;-55
2022/06/20 12:31:22;;;;;;;12.20;7.33;;;;;;;19.28;85.28;98531.94;1716634;83;21023;-56
2022/06/20 12:33:54;;;;;;;7.62;6.83;;;;;;;19.37;84.69;98485.66;1717016;83;21441;-56
2022/06/20 12:36:34;;;;;;;11.48;8.30;;;;;;;19.44;84.53;98463.20;1734633;81;21037;-59
2022/06/20 12:39:05;;;;;;;8.68;6.75;;;;;;;19.56;83.33;98464.06;1754152;81;20990;-55
2022/06/20 12:41:38;;;;;;;9.50;6.67;;;;;;;19.59;85.73;98428.73;1755661;81;21454;-59
2022/06/20 12:44:21;;;;;;;9.30;6.62;;;;;;;19.60;85.01;98409.08;1754715;81;21042;-57
2022/06/20 12:47:16;;;;;;;19.10;7.70;;;;;;;19.64;84.71;98393.08;1751434;82;20971;-58
2022/06/20 12:50:10;;;;;;;20.88;7.05;;;;;;;19.61;83.80;98385.39;1752688;82;21014;-58
2022/06/20 12:53:10;;;;;;;15.48;7.53;;;;;;;19.63;83.04;98382.06;1752346;82;21037;-52
2022/06/20 12:56:08;;;;;;;14.50;7.80;;;;;;;19.64;84.29;98353.90;1733700;81;20974;-58
2022/06/20 12:59:20;;;;;;;12.53;9.03;;;;;;;19.55;82.94;98338.89;1752633;81;20994;-53
2022/06/20 13:01:57;;;;;;;11.80;8.05;;;;;;;19.56;83.81;98333.40;1752703;81;21066;-55
2022/06/20 13:04:57;;;;;;;10.95;7.62;;;;;;;19.56;83.38;98340.58;1752510;82;21109;-56
2022/06/20 13:07:49;;;;;;;7.33;6.42;;;;;;;19.55;83.12;98339.75;1751879;81;21108;-56
2022/06/20 13:10:26;;;;;;;12.07;7.53;;;;;;;19.60;83.09;98334.41;1752477;82;21031;-61
2022/06/20 13:13:21;;;;;;;;;;;;;;;19.62;84.10;98288.41;1755599;81;21464;-52
2022/06/20 13:16:24;;;;;;;15.75;6.95;;;;;;;19.59;84.36;98343.39;1752498;81;20134;-53
2022/06/20 13:19:23;;;;;;;13.62;7.83;;;;;;;19.51;81.92;98358.38;1752650;81;21030;-51
2022/06/20 13:22:01;;;;;;;10.48;7.70;;;;;;;19.37;84.13;98369.22;1751935;82;21124;-54
2022/06/20 13:24:50;;;;;;;9.70;7.90;;;;;;;19.31;84.35;98382.35;1751585;81;21158;-51
2022/06/20 13:27:39;;;;;;;12.07;8.83;;;;;;;19.20;85.36;98379.99;1745196;81;21054;-56
2022/06/20 13:30:28;;;;;;;16.65;9.20;;;;;;;19.09;84.61;98389.95;1715778;83;21456;-59
2022/06/20 13:33:14;;;;;;;12.00;9.20;;;;;;;19.03;86.64;98406.59;1716061;83;21494;-56
2022/06/20 13:36:21;;;;;;;14.43;9.88;;;;;;;19.04;86.60;98422.06;1716272;83;21054;-65
2022/06/20 13:38:58;;;;;;;15.60;11.10;;;;;;;18.94;87.44;98417.70;1717531;83;21031;-56
2022/06/20 13:41:48;;;;;;;19.17;12.63;;;;;;;18.96;87.05;98396.23;1717356;83;20988;-56
2022/06/20 13:44:48;;;;;;;19.73;14.30;;;;;;;18.91;87.23;98365.23;1717662;83;21560;-56
2022/06/20 13:47:31;;;;;;;16.05;14.35;;;;;;;18.94;85.29;98360.42;1722757;83;21487;-54
2022/06/20 13:50:35;;;;;;;22.90;16.50;;;;;;;19.02;85.27;98340.95;1707944;83;20959;-57
2022/06/20 13:53:45;;;;;;;22.22;16.75;;;;;;;19.09;86.48;98316.66;1722793;82;20991;-63
2022/06/20 13:56:33;;;;;;;26.60;18.30;;;;;;;19.21;85.79;98295.88;1722757;83;21094;-58
2022/06/20 13:59:22;;;;;;;24.18;17.67;;;;;;;19.35;85.33;98283.72;1722955;82;20979;-54
2022/06/20 14:02:04;;;;;;;24.95;20.00;;;;;;;19.44;85.15;98278.72;1722691;82;21000;-54
2022/06/20 14:04:33;;;;;;;28.20;20.27;;;;;;;19.59;85.10;98280.22;1722987;83;20992;-56
2022/06/20 14:07:05;;;;;;;25.60;21.45;;;;;;;19.70;84.40;98269.72;1722756;83;21075;-58
2022/06/20 14:09:46;;;;;;;26.15;22.05;;;;;;;19.83;84.35;98271.42;1722191;82;20964;-54
2022/06/20 14:12:34;;;;;;;27.82;21.97;;;;;;;20.13;84.69;98265.83;1721483;83;21003;-58
2022/06/20 14:15:23;;;;;;;26.93;21.30;;;;;;;20.46;84.44;98253.70;1722650;83;21524;-54
2022/06/20 14:17:56;;;;;;;26.15;20.77;;;;;;;20.69;83.65;98243.12;1722778;83;21356;-53
2022/06/20 14:20:27;;;;;;;25.92;20.65;;;;;;;20.86;83.04;98234.50;1722038;83;21548;-59
2022/06/20 14:22:55;;;;;;;25.35;20.50;;;;;;;21.05;82.03;98235.89;1727647;82;21007;-55
2022/06/20 14:25:44;;;;;;;25.17;19.73;;;;;;;21.20;81.30;98232.45;1751019;82;21577;-53
2022/06/20 14:28:41;;;;;;;24.05;18.70;;;;;;;21.36;81.65;98230.98;1753411;82;21523;-53
2022/06/20 14:31:19;;;;;;;26.42;18.90;;;;;;;21.44;81.31;98235.42;1727905;82;20990;-58
2022/06/20 14:33:59;;;;;;;32.67;19.98;;;;;;;21.41;80.17;98256.69;1744316;81;20952;-63
2022/06/20 14:36:36;;;;;;;24.37;18.55;;;;;;;21.35;79.25;98246.69;1715682;83;20983;-56
2022/06/20 14:39:17;;;;;;;;;;;;;;;21.38;79.53;98253.03;1725603;83;21002;-58
2022/06/20 14:42:01;;;;;;;26.10;20.45;;;;;;;21.62;79.99;98255.20;1721774;82;20139;-56
2022/06/20 14:44:38;;;;;;;25.48;18.65;;;;;;;21.95;78.80;98257.56;1714381;82;21068;-56
2022/06/20 14:47:21;;;;;;;20.90;17.52;;;;;;;22.20;78.99;98250.92;1711573;84;20999;-54
2022/06/20 14:50:19;;;;;;;23.22;16.77;;;;;;;22.46;78.09;98241.61;1711413;82;21022;-52
2022/06/20 14:52:51;;;;;;;21.12;16.77;;;;;;;22.61;76.03;98229.52;1662848;86;21110;-59
2022/06/20 14:55:45;;;;;;;21.37;17.37;;;;;;;22.67;75.79;98226.63;1663497;85;21144;-54
2022/06/20 14:58:27;;;;;;;21.65;15.68;;;;;;;22.68;74.96;98224.25;1663302;85;21438;-55
2022/06/20 15:01:25;;;;;;;24.27;17.12;;;;;;;22.71;75.02;98235.42;1663817;85;21039;-56
2022/06/20 15:04:20;;;;;;;26.10;18.12;;;;;;;22.83;75.25;98240.29;1662821;86;21015;-51
2022/06/20 15:07:18;;;;;;;27.55;17.87;;;;;;;22.80;74.65;98232.95;1663461;85;21016;-54
2022/06/20 15:09:52;;;;;;;21.75;17.00;;;;;;;22.84;75.00;98222.68;1662496;86;21051;-52
2022/06/20 15:12:45;;;;;;;25.43;17.90;;;;;;;22.74;74.57;98227.02;1663110;85;21521;-52
2022/06/20 15:15:37;;;;;;;27.60;17.45;;;;;;;22.68;74.91;98214.88;1662327;85;21035;-55
2022/06/20 15:18:34;;;;;;;25.72;17.12;;;;;;;22.54;75.36;98200.48;1665155;84;21088;-58
2022/06/20 15:21:26;;;;;;;26.95;15.68;;;;;;;22.51;75.28;98200.88;1649077;87;21112;-57
2022/06/20 15:24:28;;;;;;;21.75;14.95;;;;;;;22.56;75.21;98175.70;1686882;85;21078;-55
2022/06/20 15:26:58;;;;;;;20.23;13.95;;;;;;;22.58;75.74;98168.30;1688661;84;21075;-58
2022/06/20 15:30:05;;;;;;;18.80;13.53;;;;;;;22.60;75.33;98161.72;1688619;83;21106;-59
2022/06/20 15:32:41;;;;;;;18.15;13.18;;;;;;;22.68;75.02;98155.92;1689132;84;21034;-49